createdAt,value
2024-04-30T00:00:47.771Z,6.45
2024-04-30T00:03:18.077Z,6.46
2024-04-30T00:05:48.179Z,6.54
2024-04-30T00:08:21.160Z,6.58
2024-04-30T00:10:50.469Z,6.62
2024-04-30T00:13:20.855Z,6.60
2024-04-30T00:15:48.642Z,6.58
2024-04-30T00:18:20.451Z,6.60
2024-04-30T00:20:48.090Z,6.55
2024-04-30T00:23:23.913Z,6.52
2024-04-30T00:25:53.117Z,6.49
2024-04-30T00:28:24.793Z,6.50
2024-04-30T00:30:52.625Z,6.57
2024-04-30T00:33:22.820Z,6.59
2024-04-30T00:35:50.463Z,6.57
2024-04-30T00:38:23.305Z,6.54
2024-04-30T00:40:50.989Z,6.49
2024-04-30T00:43:21.908Z,6.45
2024-04-30T00:45:51.159Z,6.41
2024-04-30T00:48:22.987Z,6.39
2024-04-30T00:50:53.670Z,6.41
2024-04-30T00:53:26.617Z,6.40
2024-04-30T00:55:54.602Z,6.37
2024-04-30T00:58:24.974Z,6.36
2024-04-30T01:00:52.833Z,6.32
2024-04-30T01:03:23.160Z,6.30
2024-04-30T01:05:52.302Z,6.23
2024-04-30T01:08:22.564Z,6.18
2024-04-30T01:10:53.092Z,6.15
2024-04-30T01:13:23.422Z,6.13
2024-04-30T01:15:52.588Z,6.13
2024-04-30T01:18:22.831Z,6.14
2024-04-30T01:20:51.980Z,6.06
2024-04-30T01:23:24.970Z,6.00
2024-04-30T01:25:52.561Z,5.98
2024-04-30T01:28:22.730Z,5.97
2024-04-30T01:30:50.425Z,5.94
2024-04-30T01:33:20.756Z,5.90
2024-04-30T01:35:48.409Z,5.92
2024-04-30T01:38:20.449Z,5.90
2024-04-30T01:40:50.684Z,5.81
2024-04-30T01:43:20.951Z,5.76
2024-04-30T01:45:50.090Z,5.73
2024-04-30T01:48:20.354Z,5.69
2024-04-30T01:50:48.062Z,5.68
2024-04-30T01:53:18.331Z,5.60
2024-04-30T01:55:45.930Z,5.57
2024-04-30T01:58:18.936Z,5.60
2024-04-30T02:00:46.645Z,5.61
2024-04-30T02:03:16.881Z,5.58
2024-04-30T02:05:46.990Z,5.53
2024-04-30T02:08:17.179Z,5.53
2024-04-30T02:10:46.394Z,5.50
2024-04-30T02:13:19.438Z,5.53
2024-04-30T02:15:47.158Z,5.49
2024-04-30T02:18:17.383Z,5.45
2024-04-30T02:20:45.012Z,5.42
2024-04-30T02:23:15.253Z,5.39
2024-04-30T02:25:44.084Z,5.37
2024-04-30T02:28:14.309Z,5.33
2024-04-30T02:31:02.783Z,5.31
2024-04-30T02:33:50.595Z,5.28
2024-04-30T02:36:22.375Z,5.26
2024-04-30T02:38:54.152Z,5.20
2024-04-30T02:41:24.475Z,5.17
2024-04-30T02:43:56.272Z,5.16
2024-04-30T02:46:27.548Z,5.11
2024-04-30T02:48:57.840Z,5.10
2024-04-30T02:51:27.705Z,5.07
2024-04-30T02:53:57.966Z,5.02
2024-04-30T02:56:25.589Z,5.02
2024-04-30T02:58:55.841Z,5.04
2024-04-30T03:01:27.741Z,5.01
2024-04-30T03:03:59.623Z,4.97
2024-04-30T03:06:27.260Z,4.92
2024-04-30T03:08:57.884Z,4.91
2024-04-30T03:11:27.087Z,4.88
2024-04-30T03:13:57.399Z,4.87
2024-04-30T03:16:27.803Z,4.82
2024-04-30T03:18:59.695Z,4.85
2024-04-30T03:21:27.420Z,4.88
2024-04-30T03:23:57.620Z,4.89
2024-04-30T03:26:25.398Z,4.90
2024-04-30T03:28:55.740Z,4.91
2024-04-30T03:31:27.569Z,4.89
2024-04-30T03:33:59.773Z,4.87
2024-04-30T03:36:28.855Z,4.86
2024-04-30T03:38:59.117Z,4.86
2024-04-30T03:41:29.421Z,4.88
2024-04-30T03:44:00.951Z,4.88
2024-04-30T03:46:31.291Z,4.89
2024-04-30T03:49:01.617Z,4.90
2024-04-30T03:51:31.930Z,4.92
2024-04-30T03:54:01.051Z,4.93
2024-04-30T03:56:31.275Z,4.95
2024-04-30T03:58:58.972Z,4.96
2024-04-30T04:01:29.221Z,5.00
2024-04-30T04:03:59.596Z,4.98
2024-04-30T04:06:31.525Z,5.00
2024-04-30T04:09:01.694Z,4.99
2024-04-30T04:11:49.365Z,4.98
2024-04-30T04:14:35.891Z,4.97
2024-04-30T04:17:08.618Z,4.95
2024-04-30T04:19:41.745Z,4.96
2024-04-30T04:22:12.251Z,4.97
2024-04-30T04:24:42.654Z,4.98
2024-04-30T04:27:13.540Z,5.00
2024-04-30T04:29:43.722Z,5.01
2024-04-30T04:32:12.978Z,5.03
2024-04-30T04:34:45.913Z,5.05
2024-04-30T04:37:15.022Z,5.04
2024-04-30T04:39:45.314Z,5.04
2024-04-30T04:42:12.935Z,5.04
2024-04-30T04:44:43.188Z,5.03
2024-04-30T04:47:13.486Z,5.03
2024-04-30T04:49:43.853Z,5.01
2024-04-30T04:52:14.202Z,5.05
2024-04-30T04:54:44.708Z,5.05
2024-04-30T04:57:14.953Z,5.03
2024-04-30T04:59:42.607Z,5.02
2024-04-30T05:02:12.943Z,5.00
2024-04-30T05:04:43.411Z,5.00
2024-04-30T05:07:13.709Z,4.98
2024-04-30T05:09:41.324Z,4.96
2024-04-30T05:12:11.650Z,4.92
2024-04-30T05:14:40.782Z,4.91
2024-04-30T05:17:11.106Z,4.92
2024-04-30T05:19:38.862Z,4.91
2024-04-30T05:22:11.800Z,4.94
2024-04-30T05:24:39.438Z,4.92
2024-04-30T05:27:09.642Z,4.96
2024-04-30T05:29:38.946Z,5.03
2024-04-30T05:32:09.282Z,5.06
2024-04-30T05:34:37.000Z,5.10
2024-04-30T05:37:07.551Z,5.15
2024-04-30T05:39:39.613Z,5.16
2024-04-30T05:42:09.826Z,5.18
2024-04-30T05:44:37.511Z,5.24
2024-04-30T05:47:09.963Z,5.31
2024-04-30T05:49:37.793Z,5.36
2024-04-30T05:52:08.760Z,5.43
2024-04-30T05:54:39.059Z,5.53
2024-04-30T05:57:09.357Z,5.61
2024-04-30T05:59:36.990Z,5.69
2024-04-30T06:02:07.673Z,5.79
2024-04-30T06:04:36.822Z,5.93
2024-04-30T06:07:07.585Z,6.01
2024-04-30T06:09:39.514Z,6.14
2024-04-30T06:12:09.980Z,6.23
2024-04-30T06:14:39.068Z,6.30
2024-04-30T06:17:09.408Z,6.36
2024-04-30T06:19:37.197Z,6.43
2024-04-30T06:22:07.819Z,6.53
2024-04-30T06:24:35.460Z,6.63
2024-04-30T06:27:08.717Z,6.75
2024-04-30T06:29:40.020Z,6.93
2024-04-30T06:32:11.780Z,7.05
2024-04-30T06:34:41.776Z,7.13
2024-04-30T06:37:13.598Z,7.21
2024-04-30T06:39:43.801Z,7.28
2024-04-30T06:42:17.975Z,7.29
2024-04-30T06:44:47.246Z,7.24
2024-04-30T06:47:17.401Z,7.29
2024-04-30T06:49:45.133Z,7.37
2024-04-30T06:52:15.561Z,7.46
2024-04-30T06:54:44.914Z,7.54
2024-04-30T06:57:17.865Z,7.63
2024-04-30T06:59:45.512Z,7.65
2024-04-30T07:02:17.823Z,7.74
2024-04-30T07:04:47.202Z,7.85
2024-04-30T07:07:17.493Z,7.89
2024-04-30T07:09:45.141Z,7.92
2024-04-30T07:12:18.178Z,7.93
2024-04-30T07:14:45.856Z,7.91
2024-04-30T07:17:16.315Z,7.90
2024-04-30T07:19:44.081Z,7.85
2024-04-30T07:22:16.043Z,7.88
2024-04-30T07:24:43.882Z,7.86
2024-04-30T07:27:14.147Z,7.90
2024-04-30T07:29:46.021Z,7.86
2024-04-30T07:32:16.472Z,7.90
2024-04-30T07:34:44.467Z,7.87
2024-04-30T07:37:14.797Z,7.91
2024-04-30T07:39:44.374Z,7.93
2024-04-30T07:42:14.590Z,8.04
2024-04-30T07:44:44.881Z,8.12
2024-04-30T07:47:15.238Z,8.25
2024-04-30T07:49:44.484Z,8.26
2024-04-30T07:52:18.684Z,8.28
2024-04-30T07:54:47.918Z,8.32
2024-04-30T07:57:18.169Z,8.34
2024-04-30T07:59:48.444Z,8.43
2024-04-30T08:02:18.919Z,8.61
2024-04-30T08:04:46.728Z,8.71
2024-04-30T08:07:17.284Z,8.77
2024-04-30T08:09:46.810Z,8.86
2024-04-30T08:12:17.030Z,8.97
2024-04-30T08:14:44.671Z,9.11
2024-04-30T08:17:17.835Z,9.14
2024-04-30T08:19:45.633Z,9.13
2024-04-30T08:22:15.970Z,9.11
2024-04-30T08:24:43.616Z,9.09
2024-04-30T08:27:13.884Z,9.13
2024-04-30T08:29:42.367Z,9.39
2024-04-30T08:32:13.161Z,9.59
2024-04-30T08:34:43.797Z,9.73
2024-04-30T08:37:14.181Z,9.87
2024-04-30T08:39:41.932Z,9.90
2024-04-30T08:42:12.459Z,9.96
2024-04-30T08:44:41.631Z,10.00
2024-04-30T08:47:13.991Z,10.09
2024-04-30T08:49:51.686Z,10.17
2024-04-30T08:52:26.111Z,10.31
2024-04-30T08:54:57.100Z,10.64
2024-04-30T08:57:31.770Z,10.90
2024-04-30T09:00:00.930Z,11.01
2024-04-30T09:02:36.559Z,11.40
2024-04-30T09:05:07.732Z,11.69
2024-04-30T09:07:38.469Z,12.07
2024-04-30T09:10:08.185Z,12.05
2024-04-30T09:12:38.463Z,11.86
2024-04-30T09:15:06.713Z,11.67
2024-04-30T09:17:36.978Z,11.62
2024-04-30T09:20:10.211Z,11.75
2024-04-30T09:22:52.888Z,11.86
2024-04-30T09:25:35.981Z,11.49
2024-04-30T09:28:15.596Z,11.18
2024-04-30T09:30:43.703Z,11.40
2024-04-30T09:33:14.523Z,11.62
2024-04-30T09:35:48.171Z,11.85
2024-04-30T09:38:22.660Z,12.13
2024-04-30T09:40:50.343Z,12.49
2024-04-30T09:43:21.376Z,12.57
2024-04-30T09:45:50.145Z,12.74
2024-04-30T09:48:20.700Z,12.94
2024-04-30T09:50:52.609Z,13.14
2024-04-30T09:53:23.108Z,13.51
2024-04-30T09:55:52.862Z,13.76
2024-04-30T09:58:23.229Z,13.69
2024-04-30T10:00:50.916Z,13.73
2024-04-30T10:03:23.866Z,14.00
2024-04-30T10:06:17.881Z,14.24
2024-04-30T10:08:52.460Z,14.70
2024-04-30T10:11:20.409Z,15.09
2024-04-30T10:13:51.880Z,15.22
2024-04-30T10:16:22.344Z,15.31
2024-04-30T10:18:53.306Z,15.63
2024-04-30T10:21:35.883Z,15.75
2024-04-30T10:24:17.389Z,15.82
2024-04-30T10:26:47.663Z,15.83
2024-04-30T10:29:17.946Z,16.11
2024-04-30T10:31:49.410Z,16.07
2024-04-30T10:34:17.686Z,16.09
2024-04-30T10:36:52.597Z,16.09
2024-04-30T10:39:25.756Z,16.18
2024-04-30T10:41:57.664Z,16.17
2024-04-30T10:44:25.387Z,15.86
2024-04-30T10:46:59.315Z,15.76
2024-04-30T10:49:29.651Z,15.51
2024-04-30T10:51:59.985Z,15.74
2024-04-30T10:54:31.719Z,16.16
2024-04-30T10:57:00.964Z,16.48
2024-04-30T10:59:32.545Z,16.26
2024-04-30T11:02:00.340Z,16.28
2024-04-30T11:04:33.065Z,16.28
2024-04-30T11:07:05.256Z,16.33
2024-04-30T11:09:42.833Z,16.26
2024-04-30T11:12:10.584Z,16.61
2024-04-30T11:14:48.135Z,16.84
2024-04-30T11:17:18.457Z,16.41
2024-04-30T11:19:50.374Z,16.05
2024-04-30T11:22:20.786Z,15.65
2024-04-30T11:24:51.160Z,15.85
2024-04-30T11:27:18.816Z,16.18
2024-04-30T11:29:49.132Z,16.70
2024-04-30T11:32:18.375Z,16.60
2024-04-30T11:34:49.785Z,16.74
2024-04-30T11:37:20.481Z,16.42
2024-04-30T11:39:52.676Z,15.96
2024-04-30T11:42:27.390Z,15.72
2024-04-30T11:45:01.928Z,16.07
2024-04-30T11:47:29.760Z,16.41
2024-04-30T11:50:00.991Z,16.44
2024-04-30T11:52:31.422Z,16.02
2024-04-30T11:55:03.438Z,15.54
2024-04-30T11:57:31.004Z,15.33
2024-04-30T12:00:01.334Z,15.40
2024-04-30T12:02:32.118Z,15.42
2024-04-30T12:05:02.611Z,15.36
2024-04-30T12:07:34.683Z,15.38
2024-04-30T12:10:10.430Z,15.61
2024-04-30T12:12:41.181Z,15.42
2024-04-30T12:15:13.318Z,15.39
2024-04-30T12:17:41.142Z,15.16
2024-04-30T12:20:12.397Z,14.99
2024-04-30T12:22:42.806Z,14.87
2024-04-30T12:25:15.176Z,14.64
2024-04-30T12:27:42.956Z,14.57
2024-04-30T12:30:13.859Z,14.53
2024-04-30T12:32:41.577Z,14.52
2024-04-30T12:35:11.926Z,14.56
2024-04-30T12:37:42.293Z,14.88
2024-04-30T12:40:14.402Z,15.33
2024-04-30T12:42:43.170Z,15.94
2024-04-30T12:45:13.507Z,16.74
2024-04-30T12:47:41.267Z,17.19
2024-04-30T12:50:11.730Z,17.19
2024-04-30T12:52:42.138Z,17.31
2024-04-30T12:55:16.311Z,16.66
2024-04-30T12:57:43.991Z,16.14
2024-04-30T13:00:15.745Z,16.18
2024-04-30T13:02:44.991Z,16.44
2024-04-30T13:05:21.743Z,16.95
2024-04-30T13:08:04.429Z,17.21
2024-04-30T13:10:39.273Z,16.90
2024-04-30T13:13:09.722Z,17.15
2024-04-30T13:15:37.364Z,17.21
2024-04-30T13:18:08.290Z,16.74
2024-04-30T13:20:39.609Z,16.50
2024-04-30T13:23:12.581Z,16.38
2024-04-30T13:25:41.920Z,16.35
2024-04-30T13:28:12.257Z,16.46
2024-04-30T13:30:42.634Z,16.69
2024-04-30T13:33:12.303Z,17.00
2024-04-30T13:35:42.603Z,17.00
2024-04-30T13:38:13.309Z,17.36
2024-04-30T13:40:44.085Z,17.49
2024-04-30T13:43:12.195Z,17.27
2024-04-30T13:45:42.654Z,16.85
2024-04-30T13:48:14.575Z,16.62
2024-04-30T13:50:43.769Z,16.23
2024-04-30T13:53:16.826Z,16.03
2024-04-30T13:55:46.162Z,15.79
2024-04-30T13:58:16.827Z,15.67
2024-04-30T14:00:44.544Z,15.59
2024-04-30T14:03:14.986Z,15.72
2024-04-30T14:05:42.681Z,15.92
2024-04-30T14:08:13.317Z,16.06
2024-04-30T14:10:43.762Z,16.20
2024-04-30T14:13:14.173Z,16.34
2024-04-30T14:15:45.933Z,16.33
2024-04-30T14:18:13.619Z,16.25
2024-04-30T14:20:43.948Z,15.85
2024-04-30T14:23:13.121Z,15.74
2024-04-30T14:25:46.254Z,15.78
2024-04-30T14:28:19.624Z,16.12
2024-04-30T14:30:50.278Z,16.27
2024-04-30T14:33:19.853Z,16.21
2024-04-30T14:36:06.056Z,15.98
2024-04-30T14:38:40.534Z,15.82
2024-04-30T14:41:15.700Z,15.61
2024-04-30T14:43:43.366Z,15.26
2024-04-30T14:46:13.707Z,15.16
2024-04-30T14:48:43.562Z,15.03
2024-04-30T14:51:14.045Z,15.26
2024-04-30T14:53:41.732Z,15.24
2024-04-30T14:56:17.906Z,15.10
2024-04-30T14:58:47.181Z,14.90
2024-04-30T15:01:17.588Z,14.75
2024-04-30T15:03:45.345Z,14.84
2024-04-30T15:06:20.488Z,15.02
2024-04-30T15:08:48.602Z,14.98
2024-04-30T15:11:26.206Z,14.82
2024-04-30T15:13:54.337Z,14.92
2024-04-30T15:16:24.618Z,15.11
2024-04-30T15:18:52.540Z,15.18
2024-04-30T15:21:22.863Z,15.17
2024-04-30T15:23:50.490Z,15.34
2024-04-30T15:26:20.686Z,15.44
2024-04-30T15:28:53.652Z,15.26
2024-04-30T15:31:24.443Z,15.07
2024-04-30T15:33:53.736Z,14.87
2024-04-30T15:36:24.007Z,14.83
2024-04-30T15:38:54.332Z,14.81
2024-04-30T15:41:22.299Z,14.75
2024-04-30T15:43:57.915Z,14.56
2024-04-30T15:46:25.561Z,14.47
2024-04-30T15:48:55.916Z,14.45
2024-04-30T15:51:25.715Z,14.43
2024-04-30T15:53:56.000Z,14.36
2024-04-30T15:56:23.728Z,14.31
2024-04-30T15:58:56.734Z,14.26
2024-04-30T16:01:32.098Z,14.18
2024-04-30T16:04:02.463Z,14.24
2024-04-30T16:06:30.109Z,14.25
2024-04-30T16:09:00.499Z,14.14
2024-04-30T16:11:29.723Z,14.00
2024-04-30T16:13:59.970Z,14.01
2024-04-30T16:16:30.397Z,14.07
2024-04-30T16:19:00.728Z,14.17
2024-04-30T16:21:28.351Z,14.13
2024-04-30T16:23:58.589Z,13.94
2024-04-30T16:26:26.201Z,13.81
2024-04-30T16:28:56.895Z,13.69
2024-04-30T16:31:24.655Z,13.63
2024-04-30T16:33:57.674Z,13.62
2024-04-30T16:36:29.573Z,13.66
2024-04-30T16:38:57.220Z,13.71
2024-04-30T16:41:27.541Z,13.66
2024-04-30T16:43:55.532Z,13.48
2024-04-30T16:46:25.702Z,13.28
2024-04-30T16:48:57.478Z,13.08
2024-04-30T16:51:27.883Z,12.91
2024-04-30T16:53:56.959Z,12.74
2024-04-30T16:56:27.294Z,12.54
2024-04-30T16:58:57.730Z,12.51
2024-04-30T17:01:25.411Z,12.53
2024-04-30T17:03:58.767Z,12.52
2024-04-30T17:06:28.038Z,12.52
2024-04-30T17:08:58.428Z,12.49
2024-04-30T17:11:27.592Z,12.50
2024-04-30T17:13:57.871Z,12.50
2024-04-30T17:16:25.625Z,12.52
2024-04-30T17:18:58.666Z,12.54
2024-04-30T17:21:27.860Z,12.62
2024-04-30T17:23:58.312Z,12.68
2024-04-30T17:26:27.467Z,12.66
2024-04-30T17:28:58.129Z,12.63
2024-04-30T17:31:25.910Z,12.56
2024-04-30T17:33:58.904Z,12.52
2024-04-30T17:36:26.565Z,12.56
2024-04-30T17:38:56.810Z,12.57
2024-04-30T17:41:25.769Z,12.51
2024-04-30T17:43:56.086Z,12.42
2024-04-30T17:46:26.826Z,12.31
2024-04-30T17:49:02.377Z,12.21
2024-04-30T17:51:31.587Z,12.15
2024-04-30T17:54:01.852Z,12.15
2024-04-30T17:56:31.058Z,12.03
2024-04-30T17:59:01.731Z,11.96
2024-04-30T18:01:29.462Z,11.93
2024-04-30T18:04:02.945Z,11.99
2024-04-30T18:06:30.800Z,12.06
2024-04-30T18:09:01.029Z,12.05
2024-04-30T18:11:29.731Z,12.04
2024-04-30T18:14:00.191Z,12.03
2024-04-30T18:16:28.181Z,12.03
2024-04-30T18:18:58.833Z,11.97
2024-04-30T18:21:35.464Z,11.93
2024-04-30T18:24:07.743Z,11.84
2024-04-30T18:26:40.769Z,11.78
2024-04-30T18:29:16.917Z,11.77
2024-04-30T18:31:53.170Z,11.71
2024-04-30T18:34:23.752Z,11.64
2024-04-30T18:36:55.841Z,11.50
2024-04-30T18:39:26.214Z,11.33
2024-04-30T18:41:53.999Z,11.15
2024-04-30T18:44:24.661Z,10.93
2024-04-30T18:46:53.925Z,10.73
2024-04-30T18:49:24.342Z,10.58
2024-04-30T18:51:56.548Z,10.49
2024-04-30T18:54:27.277Z,10.39
2024-04-30T18:56:56.429Z,10.32
2024-04-30T18:59:27.043Z,10.22
2024-04-30T19:01:55.277Z,10.17
2024-04-30T19:04:25.855Z,10.11
2024-04-30T19:06:56.639Z,9.98
2024-04-30T19:09:27.823Z,9.82
2024-04-30T19:11:55.600Z,9.67
2024-04-30T19:14:28.551Z,9.58
2024-04-30T19:16:57.001Z,9.51
2024-04-30T19:19:27.540Z,9.43
2024-04-30T19:22:00.160Z,9.38
2024-04-30T19:24:30.541Z,9.34
2024-04-30T19:26:59.929Z,9.29
2024-04-30T19:29:30.348Z,9.23
2024-04-30T19:31:58.032Z,9.18
2024-04-30T19:34:28.501Z,9.16
2024-04-30T19:36:59.009Z,9.13
2024-04-30T19:39:29.412Z,9.12
2024-04-30T19:41:58.780Z,9.12
2024-04-30T19:44:29.402Z,9.07
2024-04-30T19:46:57.187Z,9.05
2024-04-30T19:49:27.721Z,9.04
2024-04-30T19:51:55.755Z,8.98
2024-04-30T19:54:28.934Z,8.94
2024-04-30T19:56:57.158Z,8.90
2024-04-30T19:59:27.513Z,8.85
2024-04-30T20:01:55.190Z,8.80
2024-04-30T20:04:25.717Z,8.77
2024-04-30T20:06:53.582Z,8.75
2024-04-30T20:09:24.117Z,8.73
2024-04-30T20:11:55.994Z,8.71
2024-04-30T20:14:26.341Z,8.71
2024-04-30T20:16:54.117Z,8.70
2024-04-30T20:19:24.333Z,8.66
2024-04-30T20:21:53.538Z,8.65
2024-04-30T20:24:23.776Z,8.62
2024-04-30T20:26:51.816Z,8.58
2024-04-30T20:29:24.839Z,8.56
2024-04-30T20:31:53.409Z,8.58
2024-04-30T20:34:24.888Z,8.59
2024-04-30T20:36:52.753Z,8.60
2024-04-30T20:39:23.162Z,8.61
2024-04-30T20:41:50.984Z,8.64
2024-04-30T20:44:21.223Z,8.64
2024-04-30T20:46:53.098Z,8.63
2024-04-30T20:49:23.484Z,8.63
2024-04-30T20:51:51.176Z,8.63
2024-04-30T20:54:21.438Z,8.61
2024-04-30T20:56:49.149Z,8.57
2024-04-30T20:59:19.436Z,8.53
2024-04-30T21:01:47.689Z,8.54
2024-04-30T21:04:20.784Z,8.54
2024-04-30T21:06:48.663Z,8.51
2024-04-30T21:09:19.087Z,8.49
2024-04-30T21:11:47.189Z,8.45
2024-04-30T21:14:17.432Z,8.44
2024-04-30T21:16:45.111Z,8.43
2024-04-30T21:19:15.380Z,8.42
2024-04-30T21:21:47.304Z,8.43
2024-04-30T21:24:17.586Z,8.45
2024-04-30T21:26:45.195Z,8.45
2024-04-30T21:29:15.585Z,8.45
2024-04-30T21:31:48.948Z,8.45
2024-04-30T21:34:18.383Z,8.43
2024-04-30T21:36:53.391Z,8.45
2024-04-30T21:39:21.119Z,8.44
2024-04-30T21:41:51.361Z,8.42
2024-04-30T21:44:19.010Z,8.36
2024-04-30T21:46:49.252Z,8.33
2024-04-30T21:49:16.996Z,8.30
2024-04-30T21:51:47.388Z,8.28
2024-04-30T21:54:17.945Z,8.27
2024-04-30T21:56:48.331Z,8.27
2024-04-30T21:59:17.451Z,8.27
2024-04-30T22:01:50.878Z,8.26
2024-04-30T22:04:18.359Z,8.27
2024-04-30T22:06:48.667Z,8.29
2024-04-30T22:09:19.026Z,8.31
2024-04-30T22:11:51.211Z,8.32
2024-04-30T22:14:18.872Z,8.34
2024-04-30T22:16:49.079Z,8.36
2024-04-30T22:19:18.255Z,8.38
2024-04-30T22:21:49.881Z,8.40
2024-04-30T22:24:20.335Z,8.41
2024-04-30T22:26:53.688Z,8.43
2024-04-30T22:29:22.597Z,8.38
2024-04-30T22:31:52.918Z,8.36
2024-04-30T22:34:20.654Z,8.30
2024-04-30T22:36:56.836Z,8.24
2024-04-30T22:39:29.084Z,8.15
2024-04-30T22:41:59.447Z,8.09
2024-04-30T22:44:27.051Z,8.04
2024-04-30T22:46:57.319Z,8.03
2024-04-30T22:49:26.517Z,8.01
2024-04-30T22:51:56.885Z,7.90
2024-04-30T22:54:28.816Z,7.87
2024-04-30T22:56:59.139Z,7.88
2024-04-30T22:59:30.880Z,7.86
2024-04-30T23:01:58.704Z,7.86
2024-04-30T23:04:29.251Z,7.90
2024-04-30T23:06:57.145Z,7.96
2024-04-30T23:09:29.940Z,7.99
2024-04-30T23:12:01.447Z,8.05
2024-04-30T23:14:31.732Z,8.11
2024-04-30T23:17:00.895Z,8.11
2024-04-30T23:19:31.251Z,8.14
2024-04-30T23:22:03.079Z,8.16
2024-04-30T23:24:30.937Z,8.20
2024-04-30T23:27:03.943Z,8.26
2024-04-30T23:29:31.635Z,8.31
2024-04-30T23:32:01.999Z,8.34
2024-04-30T23:34:29.669Z,8.41
2024-04-30T23:37:00.202Z,8.43
2024-04-30T23:39:29.522Z,8.45
2024-04-30T23:41:59.755Z,8.47
2024-04-30T23:44:30.126Z,8.48
2024-04-30T23:47:00.441Z,8.49
2024-04-30T23:49:28.144Z,8.51
2024-04-30T23:51:58.392Z,8.46
2024-04-30T23:54:30.143Z,8.42
2024-04-30T23:56:57.680Z,8.37
2024-04-30T23:59:28.096Z,8.28
